Time;durP1;ratioP1;P1;durP2;ratioP2;P2;SDS_P1;SDS_P2;PMS_P1;PMS_P2;Temp;Humidity;BMP_temperature;BMP_pressure;BME280_temperature;BME280_humidity;BME280_pressure;Samples;Min_cycle;Max_cycle;Signal;HPM_P1;HPM_P2
2024/01/09 00:00:49;;;;;;;23.40;9.90;;;-2.90;99.90;;;;;;5028881;28;20498;-73
2024/01/09 00:03:15;;;;;;;14.05;7.10;;;-2.90;99.90;;;;;;5028869;28;20021;-73
2024/01/09 00:05:41;;;;;;;9.75;5.07;;;-3.00;99.90;;;;;;5028771;28;20029;-72
2024/01/09 00:08:06;;;;;;;13.55;5.70;;;-3.00;99.90;;;;;;5028982;28;20107;-71
2024/01/09 00:10:32;;;;;;;18.77;8.77;;;-3.10;99.90;;;;;;5029476;28;20022;-72
2024/01/09 00:12:58;;;;;;;12.02;5.85;;;-3.00;99.90;;;;;;5036287;28;20029;-71
2024/01/09 00:15:24;;;;;;;18.70;7.70;;;-3.00;99.90;;;;;;5029857;28;20028;-70
2024/01/09 00:17:50;;;;;;;15.70;8.13;;;-3.10;99.90;;;;;;5031721;28;20167;-72
2024/01/09 00:20:16;;;;;;;22.05;8.88;;;-3.10;99.90;;;;;;5048902;28;20033;-71
2024/01/09 00:22:42;;;;;;;23.85;9.02;;;-3.10;99.90;;;;;;5040770;28;20059;-72
2024/01/09 00:25:08;;;;;;;8.93;4.20;;;-3.10;99.90;;;;;;5049925;28;20608;-72
2024/01/09 00:27:34;;;;;;;12.73;6.47;;;-3.10;99.90;;;;;;5047968;28;20021;-71
2024/01/09 00:30:01;;;;;;;12.48;7.25;;;-3.10;99.90;;;;;;5050200;28;20021;-71
2024/01/09 00:32:27;;;;;;;18.17;9.00;;;-3.10;99.90;;;;;;5049624;28;20441;-71
2024/01/09 00:34:52;;;;;;;21.23;9.48;;;-3.20;99.90;;;;;;5037145;28;20121;-71
2024/01/09 00:37:18;;;;;;;21.00;10.15;;;-3.30;99.90;;;;;;5029978;28;20037;-72
2024/01/09 00:39:44;;;;;;;19.83;9.40;;;-3.30;99.90;;;;;;5027737;28;20032;-72
2024/01/09 00:42:09;;;;;;;21.40;8.95;;;-3.30;99.90;;;;;;5028947;28;20109;-71
2024/01/09 00:44:35;;;;;;;18.08;8.75;;;-3.30;99.90;;;;;;5029177;28;20052;-72
2024/01/09 00:47:01;;;;;;;18.48;9.05;;;-3.20;99.90;;;;;;5027850;28;20025;-72
2024/01/09 00:49:26;;;;;;;19.15;8.55;;;-3.30;99.90;;;;;;5029021;28;20495;-71
2024/01/09 00:51:52;;;;;;;18.52;6.82;;;-2.90;99.90;;;;;;5028992;28;20494;-72
2024/01/09 00:54:19;;;;;;;16.70;7.80;;;-3.20;99.90;;;;;;5027644;28;20026;-72
2024/01/09 00:56:45;;;;;;;24.08;9.05;;;-2.20;99.90;;;;;;5011213;28;20037;-71
2024/01/09 00:59:11;;;;;;;18.70;9.13;;;-3.10;99.90;;;;;;5011854;28;20087;-73
2024/01/09 01:01:36;;;;;;;18.85;7.65;;;-3.30;99.90;;;;;;5029935;28;20037;-72
2024/01/09 01:04:02;;;;;;;18.15;8.93;;;-3.30;99.90;;;;;;5029419;28;20113;-73
2024/01/09 01:06:28;;;;;;;14.55;7.43;;;-3.20;99.90;;;;;;5029571;28;20022;-73
2024/01/09 01:08:53;;;;;;;21.38;7.43;;;-3.10;99.90;;;;;;5029442;28;20052;-72
2024/01/09 01:11:19;;;;;;;20.30;9.27;;;-3.10;99.90;;;;;;5041033;28;20275;-72
2024/01/09 01:13:44;;;;;;;23.38;7.82;;;-3.20;99.90;;;;;;5049530;28;20063;-73
2024/01/09 01:16:10;;;;;;;16.45;7.55;;;-3.30;99.90;;;;;;5050916;28;20025;-75
2024/01/09 01:18:36;;;;;;;21.13;9.07;;;-3.30;99.90;;;;;;5050692;28;20028;-73
2024/01/09 01:21:01;;;;;;;13.75;7.70;;;-3.30;99.90;;;;;;5027851;28;20631;-72
2024/01/09 01:23:27;;;;;;;18.63;8.77;;;-3.30;99.90;;;;;;5013136;28;20082;-72
2024/01/09 01:25:56;;;;;;;16.77;8.38;;;-3.30;99.90;;;;;;5010144;28;20457;-72
2024/01/09 01:28:21;;;;;;;17.02;6.93;;;-3.30;99.90;;;;;;5029015;28;20767;-73
2024/01/09 01:30:47;;;;;;;15.38;6.10;;;-3.30;99.90;;;;;;5033947;28;20470;-73
2024/01/09 01:33:13;;;;;;;18.13;7.82;;;-3.40;99.90;;;;;;5033899;28;20084;-73
2024/01/09 01:35:38;;;;;;;17.83;6.95;;;-3.40;99.90;;;;;;5030403;28;20022;-72
2024/01/09 01:38:04;;;;;;;17.92;7.95;;;-3.30;99.90;;;;;;5029110;28;20056;-72
2024/01/09 01:40:30;;;;;;;16.15;6.43;;;-3.30;99.90;;;;;;5028984;28;20116;-73
2024/01/09 01:42:57;;;;;;;13.90;8.63;;;-3.40;99.90;;;;;;5028645;28;20173;-73
2024/01/09 01:45:24;;;;;;;16.73;8.80;;;-3.20;99.90;;;;;;5028851;28;20029;-72
2024/01/09 01:47:51;;;;;;;16.10;7.50;;;-3.40;99.90;;;;;;5028866;28;20014;-73
2024/01/09 01:50:16;;;;;;;19.95;8.38;;;-3.50;99.90;;;;;;5029100;28;20131;-72
2024/01/09 01:52:44;;;;;;;18.02;8.50;;;-3.40;99.90;;;;;;5011157;28;20036;-73
2024/01/09 01:55:11;;;;;;;22.55;9.30;;;-3.40;99.90;;;;;;5029268;28;20485;-73
2024/01/09 01:57:38;;;;;;;20.70;8.88;;;-3.40;99.90;;;;;;5031108;28;20527;-73
2024/01/09 02:00:05;;;;;;;21.48;8.90;;;-3.30;99.90;;;;;;5013066;28;20144;-72
2024/01/09 02:02:31;;;;;;;10.48;6.15;;;-3.70;99.90;;;;;;5028274;28;20657;-73
2024/01/09 02:04:57;;;;;;;13.88;7.13;;;-3.40;99.90;;;;;;5028803;28;20105;-72
2024/01/09 02:07:26;;;;;;;14.88;6.82;;;-3.40;99.90;;;;;;5028505;28;20478;-73
2024/01/09 02:09:53;;;;;;;12.32;6.13;;;-3.50;99.90;;;;;;5010953;28;20029;-72
2024/01/09 02:12:19;;;;;;;12.60;5.20;;;-3.40;99.90;;;;;;5048966;28;20176;-72
2024/01/09 02:14:46;;;;;;;19.52;6.97;;;-3.50;99.90;;;;;;5050886;28;20017;-72
2024/01/09 02:17:12;;;;;;;15.77;6.65;;;-3.50;99.90;;;;;;5052220;28;20036;-73
2024/01/09 02:19:38;;;;;;;22.80;8.30;;;-3.50;99.90;;;;;;5051144;28;20017;-72
2024/01/09 02:22:03;;;;;;;13.82;7.25;;;-3.50;99.90;;;;;;5052382;28;20122;-72
2024/01/09 02:24:29;;;;;;;10.45;5.28;;;-3.50;99.90;;;;;;5052362;28;20104;-72
2024/01/09 02:27:10;;;;;;;19.10;6.80;;;-3.50;99.90;;;;;;5051852;28;20498;-73
2024/01/09 02:29:46;;;;;;;17.73;9.10;;;-3.60;99.90;;;;;;5052040;28;20029;-72
2024/01/09 02:32:12;;;;;;;17.92;6.53;;;-3.70;99.90;;;;;;5056708;28;20032;-73
2024/01/09 02:34:39;;;;;;;15.45;5.88;;;-3.60;99.90;;;;;;5055461;28;20029;-73
2024/01/09 02:37:04;;;;;;;8.60;4.88;;;-3.70;99.90;;;;;;5057753;28;20029;-73
2024/01/09 02:39:30;;;;;;;20.95;9.52;;;-3.70;99.90;;;;;;5054197;28;20017;-73
2024/01/09 02:41:56;;;;;;;17.15;8.38;;;-3.70;99.90;;;;;;5051557;28;20029;-73
2024/01/09 02:44:21;;;;;;;22.83;10.65;;;-3.80;99.90;;;;;;5049971;28;20040;-72
2024/01/09 02:46:47;;;;;;;10.63;5.40;;;-3.80;99.90;;;;;;5050091;28;20025;-72
2024/01/09 02:49:12;;;;;;;24.83;9.52;;;-3.80;99.90;;;;;;5050367;28;20021;-73
2024/01/09 02:51:38;;;;;;;18.73;8.13;;;-3.80;99.90;;;;;;5049935;28;20021;-72
2024/01/09 02:54:04;;;;;;;23.63;10.23;;;-3.70;99.90;;;;;;5050383;28;20072;-72
2024/01/09 02:56:29;;;;;;;15.68;6.10;;;-3.80;99.90;;;;;;5048418;28;20032;-72
2024/01/09 02:58:55;;;;;;;14.43;7.53;;;-3.40;99.90;;;;;;5032105;28;20028;-72
2024/01/09 03:01:24;;;;;;;9.93;5.88;;;-3.80;99.90;;;;;;5032908;28;20032;-72
2024/01/09 03:03:49;;;;;;;19.27;9.30;;;-3.90;99.90;;;;;;5051459;28;20021;-73
2024/01/09 03:06:15;;;;;;;15.82;6.18;;;-4.00;99.90;;;;;;5050596;28;20392;-72
2024/01/09 03:08:41;;;;;;;16.98;8.02;;;-4.00;99.90;;;;;;5050494;28;20099;-72
2024/01/09 03:11:06;;;;;;;18.42;7.68;;;-4.00;99.90;;;;;;5051016;28;20458;-72
2024/01/09 03:13:32;;;;;;;18.10;7.22;;;-4.00;99.90;;;;;;5051610;28;20473;-72
2024/01/09 03:15:57;;;;;;;22.42;9.68;;;-4.00;99.90;;;;;;5049960;28;20531;-73
2024/01/09 03:18:23;;;;;;;20.88;8.38;;;-4.00;99.90;;;;;;5051354;28;20092;-73
2024/01/09 03:20:49;;;;;;;24.52;9.85;;;-4.00;99.90;;;;;;5051208;28;20056;-73
2024/01/09 03:23:14;;;;;;;22.75;9.90;;;-4.10;99.90;;;;;;5050428;28;20048;-72
2024/01/09 03:25:40;;;;;;;10.80;5.07;;;-4.10;99.90;;;;;;5051242;28;20083;-73
2024/01/09 03:28:06;;;;;;;17.83;8.00;;;-4.10;99.90;;;;;;5050661;28;20060;-73
2024/01/09 03:30:31;;;;;;;10.75;5.75;;;-4.10;99.90;;;;;;5050914;28;20033;-72
2024/01/09 03:32:57;;;;;;;18.52;8.13;;;-4.20;99.90;;;;;;5051008;28;20063;-73
2024/01/09 03:35:23;;;;;;;8.77;4.22;;;-4.20;99.90;;;;;;5050970;28;20439;-73
2024/01/09 03:37:48;;;;;;;21.17;9.45;;;-4.10;99.90;;;;;;5050980;28;20253;-73
2024/01/09 03:40:14;;;;;;;21.95;10.23;;;-4.30;99.90;;;;;;5050763;28;20086;-73
2024/01/09 03:42:40;;;;;;;23.50;10.73;;;-4.20;99.90;;;;;;5050665;28;20021;-72
2024/01/09 03:45:07;;;;;;;11.27;5.03;;;-4.20;99.90;;;;;;5050478;28;20131;-72
2024/01/09 03:47:32;;;;;;;18.63;9.13;;;-4.20;99.90;;;;;;5050138;28;20028;-73
2024/01/09 03:49:58;;;;;;;9.02;5.15;;;-4.20;99.90;;;;;;5050954;28;20029;-72
2024/01/09 03:52:24;;;;;;;21.95;9.80;;;-4.20;99.90;;;;;;5049687;28;20496;-73
2024/01/09 03:54:49;;;;;;;17.15;7.38;;;-4.20;99.90;;;;;;5049354;28;20029;-73
2024/01/09 03:57:15;;;;;;;19.77;9.02;;;-4.30;99.90;;;;;;5050467;28;20025;-73
2024/01/09 03:59:42;;;;;;;23.58;8.52;;;-3.40;99.90;;;;;;5050414;28;20110;-73
2024/01/09 04:02:07;;;;;;;20.08;9.48;;;-4.30;99.90;;;;;;5036477;28;20089;-73
2024/01/09 04:04:33;;;;;;;11.75;5.50;;;-4.30;99.90;;;;;;5051008;28;20521;-72
2024/01/09 04:06:59;;;;;;;23.30;8.63;;;-4.30;99.90;;;;;;5050296;28;20051;-72
2024/01/09 04:09:25;;;;;;;26.45;12.25;;;-4.30;99.90;;;;;;5048377;28;20043;-72
2024/01/09 04:11:50;;;;;;;16.30;6.70;;;-4.40;99.90;;;;;;5048658;28;20032;-73
2024/01/09 04:14:16;;;;;;;9.38;5.68;;;-4.40;99.90;;;;;;5032193;28;20017;-72
2024/01/09 04:16:48;;;;;;;21.17;9.98;;;-4.30;99.90;;;;;;5049985;28;20445;-72
2024/01/09 04:19:14;;;;;;;18.58;9.30;;;-4.40;99.90;;;;;;5048639;28;20051;-73
2024/01/09 04:21:40;;;;;;;21.08;10.63;;;-4.40;99.90;;;;;;5048430;28;20053;-73
2024/01/09 04:24:05;;;;;;;15.45;7.38;;;-4.40;99.90;;;;;;5049863;28;20025;-72
2024/01/09 04:26:31;;;;;;;12.80;6.03;;;-4.50;99.90;;;;;;5048015;28;20029;-73
2024/01/09 04:28:57;;;;;;;21.92;8.80;;;-4.50;99.90;;;;;;5049597;28;20029;-73
2024/01/09 04:31:25;;;;;;;23.30;8.60;;;-4.50;99.90;;;;;;5049866;28;20037;-73
2024/01/09 04:33:51;;;;;;;22.58;9.55;;;-4.40;99.90;;;;;;5049969;28;20058;-73
2024/01/09 04:36:17;;;;;;;12.98;7.03;;;-4.40;99.90;;;;;;5049576;28;20052;-72
2024/01/09 04:38:45;;;;;;;23.58;12.23;;;-4.40;99.90;;;;;;5048560;28;20032;-72
2024/01/09 04:41:17;;;;;;;15.40;8.60;;;-4.50;99.90;;;;;;5031162;28;20035;-72
2024/01/09 04:43:46;;;;;;;24.25;10.45;;;-4.40;99.90;;;;;;5049601;28;20031;-72
2024/01/09 04:46:13;;;;;;;27.13;9.25;;;-4.70;99.90;;;;;;5049713;28;20033;-72
2024/01/09 04:48:39;;;;;;;18.85;9.15;;;-4.60;99.90;;;;;;5047938;28;20476;-73
2024/01/09 04:51:05;;;;;;;15.32;6.55;;;-4.60;99.90;;;;;;5049603;28;20855;-72
2024/01/09 04:53:31;;;;;;;19.15;8.70;;;-4.60;99.90;;;;;;5049493;28;20052;-72
2024/01/09 04:55:56;;;;;;;14.20;7.30;;;-4.70;99.90;;;;;;5049351;28;20048;-71
2024/01/09 04:58:22;;;;;;;9.50;5.18;;;-4.70;99.90;;;;;;5049556;28;20047;-71
2024/01/09 05:00:48;;;;;;;18.00;8.68;;;-4.70;99.90;;;;;;5049396;28;20437;-72
2024/01/09 05:03:13;;;;;;;12.27;6.28;;;-4.80;99.90;;;;;;5047494;28;20055;-72
2024/01/09 05:05:39;;;;;;;22.02;9.35;;;-4.80;99.90;;;;;;5047973;28;20056;-72
2024/01/09 05:08:05;;;;;;;17.35;8.07;;;-4.70;99.90;;;;;;5048513;28;20057;-72
2024/01/09 05:10:31;;;;;;;21.95;10.50;;;-4.70;99.90;;;;;;5026182;28;20037;-72
2024/01/09 05:12:57;;;;;;;15.55;7.75;;;-4.80;99.90;;;;;;5027173;28;20032;-72
2024/01/09 05:15:23;;;;;;;22.38;11.20;;;-4.80;99.90;;;;;;5027480;28;20064;-72
2024/01/09 05:17:48;;;;;;;28.08;11.40;;;-4.90;99.90;;;;;;5027724;28;20506;-72
2024/01/09 05:20:14;;;;;;;16.58;7.70;;;-4.90;99.90;;;;;;5027740;28;20390;-73
2024/01/09 05:22:40;;;;;;;28.67;11.13;;;-4.80;99.90;;;;;;5046596;28;20128;-72
2024/01/09 05:25:06;;;;;;;19.52;9.60;;;-4.80;99.90;;;;;;5048676;28;20047;-72
2024/01/09 05:27:32;;;;;;;11.35;5.72;;;-4.80;99.90;;;;;;5048474;28;20100;-73
2024/01/09 05:29:58;;;;;;;11.75;5.78;;;-4.70;99.90;;;;;;5048910;28;20116;-72
2024/01/09 05:32:24;;;;;;;27.52;12.88;;;-4.80;99.90;;;;;;5048900;28;20503;-72
2024/01/09 05:34:50;;;;;;;24.95;10.25;;;-4.80;99.90;;;;;;5048895;28;20570;-72
2024/01/09 05:37:16;;;;;;;24.60;11.88;;;-4.80;99.90;;;;;;5048999;28;20048;-72
2024/01/09 05:39:45;;;;;;;14.43;7.28;;;-4.90;99.90;;;;;;5050745;28;20497;-72
2024/01/09 05:42:11;;;;;;;27.77;10.18;;;-4.90;99.90;;;;;;5050229;28;20031;-71
2024/01/09 05:44:37;;;;;;;9.15;5.88;;;-4.90;99.90;;;;;;5048979;28;20147;-73
2024/01/09 05:47:03;;;;;;;24.40;10.88;;;-4.90;99.90;;;;;;5048090;28;20033;-72
2024/01/09 05:49:29;;;;;;;23.25;10.40;;;-5.00;99.90;;;;;;5049367;28;20033;-72
2024/01/09 05:51:54;;;;;;;32.58;11.98;;;-5.00;99.90;;;;;;5047331;28;20029;-71
2024/01/09 05:54:20;;;;;;;26.95;10.10;;;-4.30;99.90;;;;;;5030684;28;20043;-71
2024/01/09 05:56:46;;;;;;;25.17;11.77;;;-5.00;99.90;;;;;;5047408;28;20043;-73
2024/01/09 05:59:12;;;;;;;20.55;10.13;;;-5.00;99.90;;;;;;5049156;28;20051;-72
2024/01/09 06:01:37;;;;;;;28.70;10.43;;;-4.90;99.90;;;;;;5045771;28;20033;-71
2024/01/09 06:04:04;;;;;;;10.85;7.03;;;-4.90;99.90;;;;;;5049328;28;20402;-72
2024/01/09 06:06:29;;;;;;;28.35;9.02;;;-4.90;99.90;;;;;;5047640;28;20025;-71
2024/01/09 06:08:55;;;;;;;21.25;9.27;;;-4.90;99.90;;;;;;5048083;28;20027;-71
2024/01/09 06:11:21;;;;;;;24.42;10.38;;;-5.00;99.90;;;;;;5047006;28;20131;-71
2024/01/09 06:13:47;;;;;;;21.83;9.93;;;-4.90;99.90;;;;;;5029404;28;20052;-72
2024/01/09 06:16:13;;;;;;;18.17;7.80;;;-4.90;99.90;;;;;;5029635;28;20029;-71
2024/01/09 06:18:39;;;;;;;13.50;7.13;;;-5.00;99.90;;;;;;5031721;28;20525;-72
2024/01/09 06:21:04;;;;;;;15.30;7.95;;;-5.00;99.90;;;;;;5047585;28;20516;-71
2024/01/09 06:23:30;;;;;;;22.80;8.65;;;-5.10;99.90;;;;;;5029893;28;20108;-72
2024/01/09 06:25:56;;;;;;;8.25;5.65;;;-5.10;99.90;;;;;;5048225;28;20025;-72
2024/01/09 06:28:21;;;;;;;19.10;8.55;;;-5.10;99.90;;;;;;5030798;28;20636;-71
2024/01/09 06:30:47;;;;;;;26.15;11.98;;;-5.20;99.90;;;;;;5029430;28;20369;-72
2024/01/09 06:33:13;;;;;;;24.35;10.02;;;-5.20;99.90;;;;;;5029586;28;20338;-73
2024/01/09 06:35:38;;;;;;;14.52;7.07;;;-5.20;99.90;;;;;;5047545;28;20135;-70
2024/01/09 06:38:04;;;;;;;30.58;10.48;;;-5.20;99.90;;;;;;5029325;28;20143;-72
2024/01/09 06:40:29;;;;;;;33.40;13.32;;;-5.20;99.90;;;;;;5046037;28;20643;-71
2024/01/09 06:42:55;;;;;;;29.02;10.30;;;-5.30;99.90;;;;;;5046816;28;20052;-73
2024/01/09 06:45:21;;;;;;;30.58;11.77;;;-5.20;99.90;;;;;;5029555;28;20037;-72
2024/01/09 06:47:47;;;;;;;17.75;8.40;;;-5.30;99.90;;;;;;5047702;28;20127;-73
2024/01/09 06:50:13;;;;;;;26.77;12.40;;;-5.30;99.90;;;;;;5047458;28;20021;-72
2024/01/09 06:52:39;;;;;;;21.55;10.57;;;-5.30;99.90;;;;;;5047362;28;20484;-71
2024/01/09 06:55:05;;;;;;;27.40;11.02;;;-5.30;99.90;;;;;;5047424;28;20028;-72
2024/01/09 06:57:31;;;;;;;31.98;12.43;;;-5.30;99.90;;;;;;5047644;28;20029;-71
2024/01/09 06:59:56;;;;;;;32.70;14.15;;;-5.30;99.90;;;;;;5050565;28;20036;-71
2024/01/09 07:02:22;;;;;;;29.30;12.25;;;-5.30;99.90;;;;;;5050842;28;20025;-71
2024/01/09 07:04:48;;;;;;;29.05;11.65;;;-5.40;99.90;;;;;;5050800;28;20081;-72
2024/01/09 07:07:14;;;;;;;33.50;15.40;;;-5.40;99.90;;;;;;5050888;28;20385;-71
2024/01/09 07:09:42;;;;;;;22.17;9.88;;;-5.40;99.90;;;;;;5050894;28;20052;-72
2024/01/09 07:12:09;;;;;;;24.88;11.77;;;-5.40;99.90;;;;;;5050083;28;20496;-71
2024/01/09 07:14:36;;;;;;;29.85;10.77;;;-5.50;99.90;;;;;;5050294;28;20075;-71
2024/01/09 07:17:03;;;;;;;31.33;12.48;;;-5.40;99.90;;;;;;5050386;28;20017;-72
2024/01/09 07:19:30;;;;;;;29.42;12.90;;;-5.40;99.90;;;;;;5050922;28;20017;-70
2024/01/09 07:21:56;;;;;;;26.10;10.77;;;-5.40;99.90;;;;;;5051082;28;20049;-70
2024/01/09 07:24:22;;;;;;;21.13;9.02;;;-5.30;99.90;;;;;;5052292;28;20054;-69
2024/01/09 07:26:47;;;;;;;27.73;11.10;;;-5.50;99.90;;;;;;5050746;28;20104;-71
2024/01/09 07:29:16;;;;;;;24.55;11.07;;;-5.50;99.90;;;;;;5050404;28;20033;-71
2024/01/09 07:31:43;;;;;;;25.58;11.55;;;-5.40;99.90;;;;;;5050596;28;20076;-71
2024/01/09 07:34:08;;;;;;;30.23;12.88;;;-5.40;99.90;;;;;;5050237;28;20032;-73
2024/01/09 07:36:34;;;;;;;20.23;7.72;;;-5.40;99.90;;;;;;5050156;28;20049;-72
2024/01/09 07:39:00;;;;;;;30.90;12.45;;;-5.40;99.90;;;;;;5032058;28;20614;-72
2024/01/09 07:41:25;;;;;;;32.78;10.80;;;-5.50;99.90;;;;;;5031721;28;20033;-71
2024/01/09 07:43:51;;;;;;;27.48;11.98;;;-5.40;99.90;;;;;;5049906;28;20029;-71
2024/01/09 07:46:17;;;;;;;25.67;10.48;;;-5.40;99.90;;;;;;5032335;28;20064;-70
2024/01/09 07:48:43;;;;;;;33.90;13.07;;;-5.40;99.90;;;;;;5032077;28;20174;-74
2024/01/09 07:51:09;;;;;;;27.98;12.63;;;-5.40;99.90;;;;;;5050346;28;20556;-71
2024/01/09 07:53:35;;;;;;;27.73;13.38;;;-5.40;99.90;;;;;;5049825;28;20136;-72
2024/01/09 07:56:00;;;;;;;29.88;12.85;;;-5.50;99.90;;;;;;5049705;28;20114;-72
2024/01/09 07:58:26;;;;;;;26.05;10.20;;;-5.50;99.90;;;;;;5051290;28;20405;-72
2024/01/09 08:00:53;;;;;;;80.95;28.73;;;-5.50;99.90;;;;;;5035540;28;20037;-71
2024/01/09 08:03:19;;;;;;;20.15;10.18;;;-5.50;99.90;;;;;;5051136;28;20013;-72
2024/01/09 08:05:44;;;;;;;24.80;11.45;;;-5.50;99.90;;;;;;5049790;28;20119;-71
2024/01/09 08:08:11;;;;;;;27.02;12.27;;;-5.40;99.90;;;;;;5047032;28;20047;-71
2024/01/09 08:10:37;;;;;;;23.00;10.52;;;-5.30;99.90;;;;;;5047642;28;20017;-69
2024/01/09 08:13:02;;;;;;;23.20;11.57;;;-5.20;99.90;;;;;;5048982;28;20071;-69
2024/01/09 08:15:29;;;;;;;27.17;11.48;;;-5.20;99.90;;;;;;5049449;28;20424;-71
2024/01/09 08:17:55;;;;;;;25.67;9.88;;;-5.20;99.90;;;;;;5048797;28;20017;-68
2024/01/09 08:20:20;;;;;;;26.35;12.50;;;-5.10;99.90;;;;;;5047748;28;20059;-70
2024/01/09 08:22:48;;;;;;;31.65;12.25;;;-5.00;99.90;;;;;;5048756;28;20041;-69
2024/01/09 08:25:15;;;;;;;30.90;12.55;;;-5.20;99.90;;;;;;5048666;28;20061;-70
2024/01/09 08:27:40;;;;;;;44.63;18.17;;;-5.10;99.90;;;;;;5048256;28;20412;-68
2024/01/09 08:30:10;;;;;;;26.45;11.85;;;-5.10;99.90;;;;;;5048664;28;20063;-71
2024/01/09 08:32:37;;;;;;;10.50;5.00;;;-5.10;99.90;;;;;;5048493;28;20029;-73
2024/01/09 08:35:03;;;;;;;29.80;13.23;;;-5.00;99.90;;;;;;5048716;28;20025;-69
2024/01/09 08:37:28;;;;;;;31.50;11.90;;;-4.90;99.90;;;;;;5048467;28;20443;-69
2024/01/09 08:39:54;;;;;;;20.52;9.57;;;-4.90;99.90;;;;;;5052588;28;20100;-68
2024/01/09 08:42:20;;;;;;;33.17;13.77;;;-5.00;99.90;;;;;;5052920;28;20050;-70
2024/01/09 08:44:45;;;;;;;25.80;10.30;;;-5.00;99.90;;;;;;5032303;28;20434;-70
2024/01/09 08:47:12;;;;;;;33.25;13.40;;;-4.90;99.90;;;;;;5048565;28;20029;-70
2024/01/09 08:49:38;;;;;;;27.30;12.32;;;-4.80;99.90;;;;;;5048466;28;20393;-70
2024/01/09 08:52:04;;;;;;;29.30;12.15;;;-4.70;99.90;;;;;;5048871;28;20021;-74
2024/01/09 08:54:30;;;;;;;44.50;13.43;;;-4.70;99.90;;;;;;5048547;28;20028;-69
2024/01/09 08:56:56;;;;;;;32.97;13.15;;;-4.60;99.90;;;;;;5048229;28;20025;-70
2024/01/09 08:59:22;;;;;;;35.85;13.57;;;-4.70;99.90;;;;;;5048438;28;20114;-69
2024/01/09 09:01:47;;;;;;;27.67;9.68;;;-4.60;99.90;;;;;;5046858;28;20041;-71
2024/01/09 09:04:13;;;;;;;39.47;17.83;;;-4.60;99.90;;;;;;5030318;28;20096;-68
2024/01/09 09:06:38;;;;;;;31.30;11.48;;;-4.60;99.90;;;;;;5048018;28;20097;-71
2024/01/09 09:09:04;;;;;;;51.50;15.05;;;-4.40;99.90;;;;;;5030074;28;20029;-69
2024/01/09 09:11:32;;;;;;;33.95;11.90;;;-4.20;99.90;;;;;;5048020;28;20433;-73
2024/01/09 09:13:57;;;;;;;29.83;12.57;;;-4.40;99.90;;;;;;5047705;28;20021;-68
2024/01/09 09:16:26;;;;;;;24.52;9.80;;;-4.30;99.90;;;;;;5048386;28;20351;-71
2024/01/09 09:18:52;;;;;;;26.23;13.30;;;-4.30;99.90;;;;;;5046550;28;20473;-71
2024/01/09 09:21:17;;;;;;;27.30;11.15;;;-4.40;99.90;;;;;;5046143;28;20053;-70
2024/01/09 09:23:44;;;;;;;28.58;10.45;;;-4.30;99.90;;;;;;5047398;28;20025;-72
2024/01/09 09:26:10;;;;;;;35.60;13.02;;;-4.40;99.90;;;;;;5046457;28;20111;-68
2024/01/09 09:28:35;;;;;;;35.13;13.45;;;-4.40;99.90;;;;;;5045234;28;20136;-71
2024/01/09 09:31:01;;;;;;;15.95;9.07;;;-4.30;99.90;;;;;;5047519;28;20482;-70
2024/01/09 09:33:30;;;;;;;23.48;9.77;;;-4.20;99.90;;;;;;5045910;28;20029;-70
2024/01/09 09:35:56;;;;;;;28.92;13.27;;;-4.20;99.90;;;;;;5045917;28;20358;-70
2024/01/09 09:38:22;;;;;;;24.92;10.65;;;-4.30;99.90;;;;;;5045761;28;20021;-71
2024/01/09 09:40:48;;;;;;;9.90;5.30;;;-4.40;99.90;;;;;;5032273;28;20029;-71
2024/01/09 09:43:26;;;;;;;15.35;6.75;;;-4.40;99.90;;;;;;5045851;28;20025;-73
2024/01/09 09:45:56;;;;;;;30.63;12.75;;;-4.40;99.90;;;;;;5046369;28;20033;-69
2024/01/09 09:48:24;;;;;;;31.55;12.80;;;-4.30;99.90;;;;;;5047692;28;20168;-70
2024/01/09 09:50:55;;;;;;;26.52;9.93;;;-4.50;99.90;;;;;;5047846;28;20040;-70
2024/01/09 09:53:22;;;;;;;23.33;10.20;;;-4.20;99.90;;;;;;5032460;28;20032;-70
2024/01/09 09:55:48;;;;;;;24.50;10.70;;;-4.30;99.90;;;;;;5038488;28;20025;-71
2024/01/09 09:58:14;;;;;;;33.13;12.40;;;-4.30;99.90;;;;;;5047450;28;20040;-69
2024/01/09 10:00:40;;;;;;;27.08;9.80;;;-4.30;99.90;;;;;;5047795;28;20040;-69
2024/01/09 10:03:10;;;;;;;26.73;10.80;;;-4.30;99.90;;;;;;5047898;28;20025;-70
2024/01/09 10:05:43;;;;;;;15.70;7.65;;;-4.10;99.90;;;;;;5048027;28;20461;-71
2024/01/09 10:08:11;;;;;;;25.52;11.73;;;-4.20;99.90;;;;;;5047582;28;20123;-71
2024/01/09 10:10:37;;;;;;;31.67;12.05;;;-4.10;99.90;;;;;;5045677;28;20029;-69
2024/01/09 10:13:03;;;;;;;32.70;11.27;;;-4.20;99.90;;;;;;5047593;28;20029;-74
2024/01/09 10:15:29;;;;;;;23.75;10.40;;;-4.30;99.90;;;;;;5046780;28;20024;-71
2024/01/09 10:17:55;;;;;;;24.80;11.45;;;-4.20;99.90;;;;;;5047407;28;20384;-71
2024/01/09 10:20:20;;;;;;;15.63;7.70;;;-4.10;99.90;;;;;;5047481;28;20512;-71
2024/01/09 10:22:48;;;;;;;26.95;11.85;;;-4.20;99.90;;;;;;5049774;28;20436;-73
2024/01/09 10:25:15;;;;;;;31.42;12.45;;;-4.20;99.90;;;;;;5035350;28;20017;-71
2024/01/09 10:27:41;;;;;;;24.73;9.05;;;-4.10;99.90;;;;;;5051806;28;20017;-72
2024/01/09 10:30:08;;;;;;;30.63;12.00;;;-4.20;99.90;;;;;;5051731;28;20043;-71
2024/01/09 10:32:35;;;;;;;27.52;12.02;;;-4.10;99.90;;;;;;5052114;28;20025;-72
2024/01/09 10:35:05;;;;;;;27.58;10.77;;;-4.10;99.90;;;;;;5055168;28;20028;-72
2024/01/09 10:37:31;;;;;;;22.15;9.38;;;-4.30;99.90;;;;;;5035923;28;20032;-71
2024/01/09 10:39:58;;;;;;;20.60;10.50;;;-4.10;99.90;;;;;;5053590;28;20234;-71
2024/01/09 10:42:24;;;;;;;25.67;11.05;;;-3.90;99.90;;;;;;5053833;28;20362;-71
2024/01/09 10:44:50;;;;;;;25.63;9.98;;;-3.80;99.90;;;;;;5054752;28;20037;-71
2024/01/09 10:47:17;;;;;;;13.27;7.40;;;-3.80;99.90;;;;;;5052979;28;20052;-72
2024/01/09 10:49:44;;;;;;;31.73;10.30;;;-3.60;99.90;;;;;;5053440;28;20524;-71
2024/01/09 10:52:15;;;;;;;27.05;11.55;;;-3.80;99.90;;;;;;5053822;28;20032;-72
2024/01/09 10:54:43;;;;;;;27.95;11.63;;;-3.60;99.90;;;;;;5065362;28;20025;-72
2024/01/09 10:57:16;;;;;;;25.93;12.20;;;-3.70;99.90;;;;;;5044977;28;20116;-74
2024/01/09 10:59:43;;;;;;;27.15;11.18;;;-3.70;99.90;;;;;;5060966;28;20092;-77
2024/01/09 11:02:15;;;;;;;28.60;12.35;;;-3.90;99.90;;;;;;5044752;28;20112;-73
2024/01/09 11:04:44;;;;;;;32.63;13.95;;;-4.20;99.90;;;;;;5055591;28;20028;-72
2024/01/09 11:07:12;;;;;;;;;;;-4.10;99.90;;;;;;5054975;28;20436;-72
2024/01/09 11:09:41;;;;;;;24.35;10.13;;;-3.90;99.90;;;;;;5052480;28;19927;-72
2024/01/09 11:12:09;;;;;;;30.02;12.60;;;-4.00;99.90;;;;;;5052751;28;20128;-71
2024/01/09 11:14:37;;;;;;;26.13;11.02;;;-4.10;99.90;;;;;;5037944;28;20024;-72
2024/01/09 11:17:04;;;;;;;29.00;12.43;;;-4.00;99.90;;;;;;5056454;28;20040;-71
2024/01/09 11:19:30;;;;;;;30.33;11.13;;;-3.70;99.90;;;;;;5055107;28;20021;-72
2024/01/09 11:21:56;;;;;;;26.08;11.25;;;-3.60;99.90;;;;;;5052706;28;20128;-72
2024/01/09 11:24:25;;;;;;;24.75;11.20;;;-3.50;99.90;;;;;;5054134;28;20100;-71
2024/01/09 11:27:10;;;;;;;27.77;11.35;;;-3.60;99.90;;;;;;5053427;28;20116;-73
2024/01/09 11:29:49;;;;;;;29.70;11.73;;;-3.70;99.90;;;;;;5052417;28;20035;-72
2024/01/09 11:32:16;;;;;;;23.85;9.98;;;-3.80;99.90;;;;;;5032155;28;20025;-74
2024/01/09 11:35:06;;;;;;;31.33;11.63;;;-3.90;99.90;;;;;;5050642;28;20542;-73
2024/01/09 11:37:32;;;;;;;31.10;11.13;;;-3.70;99.90;;;;;;5050456;28;20029;-72
2024/01/09 11:39:59;;;;;;;28.80;10.82;;;-3.30;99.90;;;;;;5051507;28;20035;-72
2024/01/09 11:42:25;;;;;;;26.85;10.40;;;-3.30;99.90;;;;;;5032595;28;20056;-73
2024/01/09 11:44:52;;;;;;;26.52;9.43;;;-3.10;99.90;;;;;;5052040;28;20021;-73
2024/01/09 11:47:18;;;;;;;10.27;5.15;;;-2.90;99.90;;;;;;5051132;28;20029;-71
2024/01/09 11:49:43;;;;;;;28.20;13.23;;;-2.90;99.90;;;;;;5050559;28;20024;-73
2024/01/09 11:52:09;;;;;;;27.67;11.57;;;-3.00;99.90;;;;;;5052518;28;20539;-72
2024/01/09 11:54:36;;;;;;;25.35;10.00;;;-3.20;99.90;;;;;;5035096;28;20188;-72
2024/01/09 11:57:03;;;;;;;30.73;10.85;;;-3.10;99.90;;;;;;5052128;28;20113;-71
2024/01/09 11:59:30;;;;;;;27.60;10.98;;;-3.20;99.90;;;;;;5034292;28;20039;-73
2024/01/09 12:01:56;;;;;;;65.30;24.55;;;-3.10;99.90;;;;;;5033084;28;20139;-72
2024/01/09 12:04:22;;;;;;;28.17;11.73;;;-2.60;99.90;;;;;;5035779;28;20029;-72
2024/01/09 12:06:48;;;;;;;26.08;11.98;;;-3.30;99.90;;;;;;5049048;28;20591;-72
2024/01/09 12:09:14;;;;;;;30.95;12.10;;;-3.30;99.90;;;;;;5049896;28;20156;-70
2024/01/09 12:11:39;;;;;;;22.05;9.65;;;-3.00;99.90;;;;;;5050387;28;20320;-71
2024/01/09 12:14:07;;;;;;;31.88;11.00;;;-3.00;99.90;;;;;;5049837;28;20078;-71
2024/01/09 12:16:32;;;;;;;25.10;11.48;;;-3.10;99.90;;;;;;5037080;28;20139;-72
2024/01/09 12:19:00;;;;;;;29.35;10.50;;;-2.40;99.90;;;;;;5043499;28;20057;-75
2024/01/09 12:21:33;;;;;;;28.45;9.80;;;-2.80;99.90;;;;;;5058805;28;20107;-72
2024/01/09 12:24:00;;;;;;;26.42;11.60;;;-3.20;99.90;;;;;;5062477;28;20039;-74
2024/01/09 12:26:28;;;;;;;25.17;11.02;;;-3.40;99.90;;;;;;5060977;28;20517;-72
2024/01/09 12:28:54;;;;;;;25.42;10.90;;;-3.50;99.90;;;;;;5049753;28;20025;-70